Matsumoto/Nagano, Japan
Current Conditions -  °F | °C
As of 9:00 PM on Thursday 29 Jan 2015 (Local Time) from RJNT Reporting Station
Broken Clouds Broken Clouds  
Wind Chill: 34°   Ceiling: 14000
Heat Index: 34°   Visibility: 6mi
Dew Point: 27°   Wind: 2mph
Humidity: 75%   Direction: NA
Pressure: 30.27"   Gusts: NA
Location:  36.25°N, 137.97°E
Report Text: RJNT 291200Z VRB02KT 9999 FEW030 SCT120 BKN140 01/M03 Q1025
Loading
Personal Weather Stations






























Interactive Weather Map New forecast layout! Learn more

10-Day Weather Forecast

Advertisements
Track Severe Weather on mobile